createdAt,value
2023-09-18T00:01:50.637Z,82.29
2023-09-18T00:04:18.599Z,82.50
2023-09-18T00:06:47.741Z,82.58
2023-09-18T00:09:15.536Z,83.13
2023-09-18T00:11:43.319Z,83.44
2023-09-18T00:14:11.312Z,83.12
2023-09-18T00:16:55.957Z,83.56
2023-09-18T00:19:25.920Z,83.51
2023-09-18T00:21:55.675Z,83.62
2023-09-18T00:24:23.617Z,83.36
2023-09-18T00:26:54.086Z,83.12
2023-09-18T00:29:22.239Z,83.51
2023-09-18T00:31:50.319Z,83.05
2023-09-18T00:34:18.234Z,82.33
2023-09-18T00:36:46.481Z,81.80
2023-09-18T00:39:16.802Z,81.46
2023-09-18T00:41:45.039Z,81.22
2023-09-18T00:44:13.068Z,80.75
2023-09-18T00:46:40.964Z,80.32
2023-09-18T00:49:08.880Z,80.17
2023-09-18T00:51:37.026Z,80.36
2023-09-18T00:54:05.243Z,80.23
2023-09-18T00:56:35.170Z,80.25
2023-09-18T00:59:04.275Z,80.38
2023-09-18T01:01:34.029Z,80.31
2023-09-18T01:04:02.490Z,80.34
2023-09-18T01:06:31.629Z,80.67
2023-09-18T01:09:01.152Z,80.62
2023-09-18T01:11:38.862Z,80.83
2023-09-18T01:14:16.573Z,79.63
2023-09-18T01:16:52.510Z,80.22
2023-09-18T01:19:36.944Z,80.12
2023-09-18T01:22:05.391Z,79.93
2023-09-18T01:24:35.262Z,79.52
2023-09-18T01:27:04.264Z,79.19
2023-09-18T01:29:32.689Z,78.95
2023-09-18T01:32:00.712Z,78.64
2023-09-18T01:34:34.309Z,79.15
2023-09-18T01:37:03.761Z,79.88
2023-09-18T01:39:33.504Z,80.08
2023-09-18T01:42:05.226Z,87.82
2023-09-18T01:44:33.450Z,89.60
2023-09-18T01:47:04.621Z,91.27
2023-09-18T01:49:35.187Z,94.92
2023-09-18T01:52:03.676Z,94.30
2023-09-18T01:54:31.746Z,95.78
2023-09-18T01:56:59.613Z,96.64
2023-09-18T01:59:29.119Z,96.21
2023-09-18T02:01:57.680Z,97.15
2023-09-18T02:05:05.753Z,98.75
2023-09-18T02:07:14.969Z,100.00
2023-09-18T02:09:42.898Z,99.67
2023-09-18T02:12:10.789Z,99.38
2023-09-18T02:14:39.985Z,100.00
2023-09-18T02:17:08.126Z,98.24
2023-09-18T02:19:35.992Z,98.99
2023-09-18T02:22:04.437Z,99.01
2023-09-18T02:24:32.333Z,99.04
2023-09-18T02:27:00.280Z,99.60
2023-09-18T02:29:28.208Z,100.00
2023-09-18T02:31:57.564Z,100.00
2023-09-18T02:34:25.372Z,100.00
2023-09-18T02:36:53.317Z,100.00
2023-09-18T02:39:21.351Z,100.00
2023-09-18T02:41:49.117Z,100.00
2023-09-18T02:44:17.227Z,100.00
2023-09-18T02:46:45.528Z,100.00
2023-09-18T02:49:14.782Z,100.00
2023-09-18T02:51:42.689Z,100.00
2023-09-18T02:54:10.499Z,100.00
2023-09-18T02:56:39.327Z,100.00
2023-09-18T02:59:07.294Z,100.00
2023-09-18T03:01:35.109Z,99.82
2023-09-18T03:04:03.101Z,99.67
2023-09-18T03:06:32.399Z,99.76
2023-09-18T03:09:00.113Z,99.67
2023-09-18T03:11:29.974Z,100.00
2023-09-18T03:13:57.935Z,100.00
2023-09-18T03:16:25.851Z,100.00
2023-09-18T03:18:54.017Z,100.00
2023-09-18T03:21:22.069Z,100.00
2023-09-18T03:23:51.288Z,99.42
2023-09-18T03:26:19.197Z,99.38
2023-09-18T03:28:47.607Z,98.78
2023-09-18T03:31:14.501Z,98.76
2023-09-18T03:33:42.313Z,98.31
2023-09-18T03:36:12.499Z,98.04
2023-09-18T03:38:40.389Z,98.86
2023-09-18T03:41:09.684Z,98.88
2023-09-18T03:43:37.508Z,99.87
2023-09-18T03:46:06.324Z,99.01
2023-09-18T03:48:38.307Z,98.10
2023-09-18T03:51:06.712Z,97.67
2023-09-18T03:53:35.047Z,97.87
2023-09-18T03:56:03.045Z,99.22
2023-09-18T03:58:34.816Z,96.46
2023-09-18T04:01:04.247Z,96.95
2023-09-18T04:03:32.278Z,97.01
2023-09-18T04:06:00.374Z,95.52
2023-09-18T04:08:28.323Z,94.57
2023-09-18T04:10:59.108Z,94.15
2023-09-18T04:13:26.980Z,91.68
2023-09-18T04:15:58.350Z,91.86
2023-09-18T04:18:26.459Z,92.36
2023-09-18T04:20:54.434Z,93.15
2023-09-18T04:23:24.546Z,93.27
2023-09-18T04:25:53.241Z,92.81
2023-09-18T04:28:22.099Z,92.70
2023-09-18T04:30:50.227Z,92.50
2023-09-18T04:33:19.744Z,92.41
2023-09-18T04:35:47.770Z,92.99
2023-09-18T04:38:16.839Z,93.24
2023-09-18T04:40:44.826Z,93.58
2023-09-18T04:43:12.643Z,93.61
2023-09-18T04:45:40.657Z,94.20
2023-09-18T04:48:09.504Z,94.64
2023-09-18T04:50:39.000Z,94.31
2023-09-18T04:53:06.972Z,94.45
2023-09-18T04:55:34.862Z,94.32
2023-09-18T04:58:05.103Z,94.58
2023-09-18T05:00:33.070Z,95.59
2023-09-18T05:03:02.960Z,95.92
2023-09-18T05:05:31.666Z,96.53
2023-09-18T05:08:00.886Z,96.34
2023-09-18T05:10:28.930Z,96.43
2023-09-18T05:13:00.020Z,96.58
2023-09-18T05:15:30.582Z,96.85
2023-09-18T05:18:00.200Z,97.32
2023-09-18T05:20:30.482Z,98.16
2023-09-18T05:23:01.138Z,98.15
2023-09-18T05:25:30.484Z,98.09
2023-09-18T05:28:00.816Z,98.89
2023-09-18T05:30:30.421Z,98.86
2023-09-18T05:32:58.338Z,99.37
2023-09-18T05:35:26.139Z,100.00
2023-09-18T05:37:55.736Z,100.00
2023-09-18T05:40:27.813Z,100.00
2023-09-18T05:42:56.690Z,100.00
2023-09-18T05:45:25.296Z,100.00
2023-09-18T05:47:54.703Z,99.81
2023-09-18T05:50:22.745Z,100.00
2023-09-18T05:52:50.933Z,100.00
2023-09-18T05:55:18.850Z,99.92
2023-09-18T05:57:48.100Z,99.79
2023-09-18T06:00:18.757Z,99.78
2023-09-18T06:02:47.082Z,99.41
2023-09-18T06:05:17.209Z,99.13
2023-09-18T06:07:46.650Z,98.57
2023-09-18T06:10:15.154Z,98.38
2023-09-18T06:12:43.124Z,97.29
2023-09-18T06:15:13.186Z,96.55
2023-09-18T06:17:41.926Z,95.62
2023-09-18T06:20:11.861Z,95.21
2023-09-18T06:22:40.659Z,94.96
2023-09-18T06:25:11.287Z,94.54
2023-09-18T06:27:40.048Z,93.96
2023-09-18T06:30:09.453Z,94.45
2023-09-18T06:32:39.479Z,93.90
2023-09-18T06:35:08.021Z,93.89
2023-09-18T06:37:36.006Z,93.99
2023-09-18T06:40:06.201Z,94.32
2023-09-18T06:42:34.134Z,94.37
2023-09-18T06:45:02.746Z,94.64
2023-09-18T06:47:31.335Z,94.42
2023-09-18T06:50:01.262Z,94.39
2023-09-18T06:52:29.212Z,94.30
2023-09-18T06:54:59.000Z,93.47
2023-09-18T06:57:27.243Z,93.63
2023-09-18T06:59:55.392Z,93.68
2023-09-18T07:02:24.104Z,92.92
2023-09-18T07:04:52.039Z,92.59
2023-09-18T07:07:26.121Z,92.18
2023-09-18T07:10:04.739Z,91.77
2023-09-18T07:12:33.658Z,90.89
2023-09-18T07:15:05.049Z,90.65
2023-09-18T07:17:33.512Z,90.65
2023-09-18T07:20:01.756Z,90.74
2023-09-18T07:22:31.481Z,89.36
2023-09-18T07:25:00.304Z,88.19
2023-09-18T07:27:28.173Z,86.35
2023-09-18T07:29:58.013Z,86.38
2023-09-18T07:32:37.698Z,86.32
2023-09-18T07:35:08.475Z,85.91
2023-09-18T07:37:38.610Z,86.79
2023-09-18T07:40:08.169Z,85.79
2023-09-18T07:42:36.304Z,86.08
2023-09-18T07:45:04.534Z,86.30
2023-09-18T07:47:33.187Z,86.88
2023-09-18T07:50:02.165Z,86.03
2023-09-18T07:52:30.323Z,85.62
2023-09-18T07:55:00.275Z,86.16
2023-09-18T07:57:29.545Z,86.61
2023-09-18T07:59:58.084Z,86.47
2023-09-18T08:02:26.662Z,86.40
2023-09-18T08:04:54.519Z,86.51
2023-09-18T08:07:22.460Z,86.66
2023-09-18T08:09:50.338Z,87.33
2023-09-18T08:12:19.575Z,87.52
2023-09-18T08:14:47.970Z,87.83
2023-09-18T08:17:15.908Z,88.07
2023-09-18T08:19:45.349Z,88.44
2023-09-18T08:22:16.494Z,88.42
2023-09-18T08:24:46.269Z,88.05
2023-09-18T08:27:17.811Z,87.63
2023-09-18T08:29:47.870Z,87.91
2023-09-18T08:32:15.870Z,88.26
2023-09-18T08:34:43.773Z,88.35
2023-09-18T08:37:11.652Z,88.82
2023-09-18T08:39:39.423Z,88.75
2023-09-18T08:42:11.396Z,88.65
2023-09-18T08:44:42.168Z,89.03
2023-09-18T08:47:14.692Z,88.48
2023-09-18T08:49:43.010Z,88.14
2023-09-18T08:52:11.721Z,88.71
2023-09-18T08:54:39.558Z,88.38
2023-09-18T08:57:08.918Z,88.83
2023-09-18T08:59:37.722Z,88.33
2023-09-18T09:02:05.670Z,88.29
2023-09-18T09:04:34.790Z,88.28
2023-09-18T09:07:02.697Z,88.34
2023-09-18T09:09:32.024Z,87.88
2023-09-18T09:12:00.185Z,87.32
2023-09-18T09:14:30.268Z,87.22
2023-09-18T09:16:59.274Z,87.14
2023-09-18T09:19:32.211Z,87.56
2023-09-18T09:22:02.563Z,86.58
2023-09-18T09:24:41.845Z,87.15
2023-09-18T09:27:09.807Z,86.88
2023-09-18T09:29:38.805Z,86.71
2023-09-18T09:32:18.437Z,86.68
2023-09-18T09:34:47.428Z,86.88
2023-09-18T09:37:16.987Z,86.38
2023-09-18T09:39:51.901Z,86.17
2023-09-18T09:42:25.959Z,86.56
2023-09-18T09:45:05.626Z,86.29
2023-09-18T09:47:37.481Z,85.89
2023-09-18T09:50:12.208Z,85.74
2023-09-18T09:52:48.326Z,84.79
2023-09-18T09:55:28.677Z,83.69
2023-09-18T09:58:00.540Z,84.23
2023-09-18T10:00:34.663Z,85.10
2023-09-18T10:03:04.538Z,85.19
2023-09-18T10:05:34.150Z,85.18
2023-09-18T10:08:08.473Z,85.28
2023-09-18T10:10:39.278Z,84.73
2023-09-18T10:13:11.851Z,84.75
2023-09-18T10:15:44.241Z,84.98
2023-09-18T10:18:30.004Z,83.93
2023-09-18T10:21:07.499Z,84.49
2023-09-18T10:23:53.610Z,83.44
2023-09-18T10:26:30.121Z,83.21
2023-09-18T10:29:02.238Z,83.24
2023-09-18T10:31:30.871Z,83.31
2023-09-18T10:33:59.515Z,82.50
2023-09-18T10:36:28.622Z,82.39
2023-09-18T10:39:00.394Z,81.79
2023-09-18T10:41:29.180Z,81.56
2023-09-18T10:44:00.330Z,81.46
2023-09-18T10:46:29.396Z,79.24
2023-09-18T10:48:58.294Z,79.49
2023-09-18T10:51:27.094Z,78.87
2023-09-18T10:53:55.112Z,78.09
2023-09-18T10:56:24.725Z,77.02
2023-09-18T10:59:00.007Z,77.20
2023-09-18T11:01:30.614Z,77.41
2023-09-18T11:04:02.769Z,77.50
2023-09-18T11:06:30.754Z,76.38
2023-09-18T11:09:05.440Z,75.91
2023-09-18T11:11:36.738Z,75.63
2023-09-18T11:14:05.847Z,75.74
2023-09-18T11:16:40.445Z,76.09
2023-09-18T11:19:13.092Z,75.88
2023-09-18T11:21:41.133Z,76.18
2023-09-18T11:24:17.893Z,75.78
2023-09-18T11:26:48.712Z,74.84
2023-09-18T11:29:20.344Z,74.88
2023-09-18T11:31:50.420Z,75.18
2023-09-18T11:34:24.035Z,74.47
2023-09-18T11:36:52.690Z,74.72
2023-09-18T11:39:37.836Z,75.33
2023-09-18T11:42:13.603Z,75.40
2023-09-18T11:44:47.731Z,74.10
2023-09-18T11:47:21.191Z,73.59
2023-09-18T11:49:55.952Z,71.84
2023-09-18T11:52:25.853Z,70.38
2023-09-18T11:54:55.742Z,70.55
2023-09-18T11:57:25.279Z,69.35
2023-09-18T11:59:53.640Z,68.42
2023-09-18T12:02:29.080Z,68.31
2023-09-18T12:04:57.566Z,68.58
2023-09-18T12:07:25.996Z,68.31
2023-09-18T12:09:55.813Z,67.90
2023-09-18T12:12:26.817Z,65.82
2023-09-18T12:14:55.568Z,65.71
2023-09-18T12:17:23.576Z,63.82
2023-09-18T12:19:55.686Z,63.25
2023-09-18T12:22:28.444Z,63.41
2023-09-18T12:25:12.153Z,64.28
2023-09-18T12:27:44.093Z,63.80
2023-09-18T12:30:16.120Z,64.27
2023-09-18T12:32:44.539Z,64.09
2023-09-18T12:35:15.941Z,64.85
2023-09-18T12:37:44.289Z,64.80
2023-09-18T12:40:23.766Z,64.72
2023-09-18T12:42:55.013Z,64.90
2023-09-18T12:45:23.594Z,65.13
2023-09-18T12:47:52.172Z,64.95
2023-09-18T12:50:20.227Z,65.35
2023-09-18T12:52:48.065Z,65.89
2023-09-18T12:55:26.848Z,66.21
2023-09-18T12:57:56.769Z,66.15
2023-09-18T13:00:27.787Z,65.64
2023-09-18T13:02:57.718Z,65.42
2023-09-18T13:05:27.777Z,64.92
2023-09-18T13:07:56.669Z,65.40
2023-09-18T13:10:28.206Z,66.49
2023-09-18T13:12:59.178Z,66.53
2023-09-18T13:15:29.594Z,66.42
2023-09-18T13:17:59.038Z,66.03
2023-09-18T13:20:30.145Z,66.89
2023-09-18T13:23:01.258Z,67.83
2023-09-18T13:25:32.131Z,68.11
2023-09-18T13:28:01.497Z,68.16
2023-09-18T13:30:29.485Z,68.01
2023-09-18T13:33:04.820Z,67.99
2023-09-18T13:35:32.950Z,67.64
2023-09-18T13:38:00.898Z,66.61
2023-09-18T13:40:28.961Z,66.44
2023-09-18T13:42:56.869Z,65.87
2023-09-18T13:45:26.096Z,65.33
2023-09-18T13:47:54.075Z,65.19
2023-09-18T13:50:22.132Z,64.04
2023-09-18T13:52:50.051Z,63.09
2023-09-18T13:55:18.791Z,62.15
2023-09-18T13:57:46.597Z,60.01
2023-09-18T14:00:15.338Z,59.97
2023-09-18T14:02:44.722Z,58.04
2023-09-18T14:05:17.993Z,57.74
2023-09-18T14:07:46.351Z,58.00
2023-09-18T14:10:15.522Z,57.75
2023-09-18T14:12:43.985Z,56.70
2023-09-18T14:15:12.637Z,55.68
2023-09-18T14:17:40.985Z,55.40
2023-09-18T14:20:11.648Z,55.19
2023-09-18T14:22:39.916Z,56.30
2023-09-18T14:25:08.605Z,55.83
2023-09-18T14:27:36.851Z,55.81
2023-09-18T14:30:08.258Z,55.72
2023-09-18T14:32:38.048Z,54.50
2023-09-18T14:35:09.168Z,54.18
2023-09-18T14:37:39.402Z,54.72
2023-09-18T14:40:13.294Z,54.23
2023-09-18T14:42:41.673Z,53.56
2023-09-18T14:45:11.178Z,54.05
2023-09-18T14:47:39.210Z,54.88
2023-09-18T14:50:09.601Z,55.50
2023-09-18T14:52:38.821Z,55.23
2023-09-18T14:55:07.110Z,55.00
2023-09-18T14:57:35.094Z,55.07
2023-09-18T15:00:07.474Z,55.18
2023-09-18T15:02:36.344Z,52.79
2023-09-18T15:05:07.340Z,52.65
2023-09-18T15:07:35.377Z,53.09
2023-09-18T15:10:06.461Z,53.26
2023-09-18T15:12:35.164Z,52.93
2023-09-18T15:15:03.562Z,52.90
2023-09-18T15:17:31.497Z,52.21
2023-09-18T15:19:59.584Z,51.97
2023-09-18T15:22:27.592Z,51.43
2023-09-18T15:24:57.756Z,51.21
2023-09-18T15:27:29.428Z,52.11
2023-09-18T15:29:57.314Z,51.46
2023-09-18T15:32:25.295Z,52.05
2023-09-18T15:34:53.254Z,50.91
2023-09-18T15:37:21.775Z,51.90
2023-09-18T15:39:48.794Z,51.83
2023-09-18T15:42:16.598Z,52.07
2023-09-18T15:44:45.887Z,52.48
2023-09-18T15:47:13.759Z,52.57
2023-09-18T15:49:41.605Z,53.22
2023-09-18T15:52:09.514Z,53.48
2023-09-18T15:54:37.357Z,53.38
2023-09-18T15:57:05.274Z,54.07
2023-09-18T15:59:33.069Z,54.24
2023-09-18T16:02:02.734Z,54.56
2023-09-18T16:04:30.626Z,55.47
2023-09-18T16:06:58.449Z,56.23
2023-09-18T16:09:26.258Z,56.24
2023-09-18T16:11:54.074Z,56.55
2023-09-18T16:14:23.807Z,56.96
2023-09-18T16:16:52.383Z,57.26
2023-09-18T16:19:24.493Z,58.30
2023-09-18T16:21:52.329Z,58.30
2023-09-18T16:24:20.113Z,58.51
2023-09-18T16:26:47.920Z,59.01
2023-09-18T16:29:15.779Z,59.15
2023-09-18T16:31:43.660Z,58.63
2023-09-18T16:34:11.643Z,59.41
2023-09-18T16:36:40.946Z,59.87
2023-09-18T16:39:08.779Z,60.50
2023-09-18T16:41:36.629Z,60.42
2023-09-18T16:44:05.868Z,60.66
2023-09-18T16:46:34.111Z,60.79
2023-09-18T16:49:02.637Z,61.58
2023-09-18T16:51:31.295Z,61.90
2023-09-18T16:54:00.954Z,62.29
2023-09-18T16:56:29.778Z,62.95
2023-09-18T16:58:57.574Z,63.83
2023-09-18T17:01:25.435Z,65.00
2023-09-18T17:03:53.480Z,67.33
2023-09-18T17:06:21.456Z,68.33
2023-09-18T17:08:49.933Z,68.33
2023-09-18T17:11:19.426Z,72.30
2023-09-18T17:13:47.319Z,71.63
2023-09-18T17:16:15.172Z,72.35
2023-09-18T17:18:43.770Z,75.00
2023-09-18T17:21:11.762Z,76.05
2023-09-18T17:23:39.875Z,77.16
2023-09-18T17:26:07.924Z,79.97
2023-09-18T17:28:37.571Z,78.74
2023-09-18T17:31:05.564Z,81.12
2023-09-18T17:33:33.667Z,82.49
2023-09-18T17:36:02.976Z,85.11
2023-09-18T17:38:30.856Z,85.67
2023-09-18T17:40:58.678Z,85.57
2023-09-18T17:43:26.480Z,82.34
2023-09-18T17:45:55.849Z,79.97
2023-09-18T17:48:23.848Z,79.27
2023-09-18T17:50:51.873Z,78.62
2023-09-18T17:53:20.692Z,77.91
2023-09-18T17:55:49.888Z,77.70
2023-09-18T17:58:18.215Z,79.62
2023-09-18T18:00:48.947Z,77.89
2023-09-18T18:03:19.186Z,80.41
2023-09-18T18:05:47.436Z,80.63
2023-09-18T18:08:15.628Z,78.89
2023-09-18T18:10:47.375Z,78.03
2023-09-18T18:13:16.523Z,78.73
2023-09-18T18:15:44.677Z,79.44
2023-09-18T18:18:14.255Z,79.52
2023-09-18T18:20:47.116Z,79.10
2023-09-18T18:23:15.108Z,78.32
2023-09-18T18:25:43.045Z,78.92
2023-09-18T18:28:12.036Z,78.55
2023-09-18T18:30:40.624Z,78.51
2023-09-18T18:33:08.665Z,79.25
2023-09-18T18:35:36.617Z,80.55
2023-09-18T18:38:06.329Z,81.54
2023-09-18T18:40:41.656Z,82.98
2023-09-18T18:43:10.001Z,84.69
2023-09-18T18:45:37.787Z,85.55
2023-09-18T18:48:06.647Z,86.66
2023-09-18T18:50:37.091Z,87.18
2023-09-18T18:53:06.794Z,88.13
2023-09-18T18:55:34.751Z,87.92
2023-09-18T18:58:04.126Z,88.15
2023-09-18T19:00:33.124Z,87.33
2023-09-18T19:03:05.319Z,86.39
2023-09-18T19:05:33.282Z,86.04
2023-09-18T19:08:01.090Z,86.02
2023-09-18T19:10:30.443Z,85.97
2023-09-18T19:12:58.717Z,85.91
2023-09-18T19:15:28.083Z,85.85
2023-09-18T19:17:58.067Z,85.97
2023-09-18T19:20:26.368Z,86.27
2023-09-18T19:22:55.907Z,86.39
2023-09-18T19:25:23.792Z,87.78
2023-09-18T19:27:53.395Z,87.79
2023-09-18T19:30:22.334Z,88.63
2023-09-18T19:32:50.348Z,89.16
2023-09-18T19:35:18.476Z,89.72
2023-09-18T19:37:46.967Z,90.57
2023-09-18T19:40:15.636Z,91.12
2023-09-18T19:42:44.314Z,91.38
2023-09-18T19:45:13.610Z,92.10
2023-09-18T19:47:41.624Z,92.46
2023-09-18T19:50:10.982Z,92.99
2023-09-18T19:52:38.910Z,93.44
2023-09-18T19:55:09.318Z,94.09
2023-09-18T19:57:38.110Z,95.44
2023-09-18T20:00:07.977Z,96.02
2023-09-18T20:02:37.840Z,96.35
2023-09-18T20:05:06.315Z,97.03
2023-09-18T20:07:34.490Z,97.88
2023-09-18T20:10:03.107Z,97.83
2023-09-18T20:12:31.671Z,98.16
2023-09-18T20:15:00.934Z,97.88
2023-09-18T20:17:28.846Z,98.41
2023-09-18T20:19:58.099Z,98.79
2023-09-18T20:22:26.607Z,99.00
2023-09-18T20:24:54.454Z,98.57
2023-09-18T20:27:22.325Z,98.80
2023-09-18T20:29:50.312Z,98.15
2023-09-18T20:32:18.196Z,97.60
2023-09-18T20:34:47.018Z,98.19
2023-09-18T20:37:16.363Z,98.24
2023-09-18T20:39:44.229Z,98.33
2023-09-18T20:42:12.185Z,98.15
2023-09-18T20:44:40.135Z,98.57
2023-09-18T20:47:08.157Z,98.40
2023-09-18T20:49:35.976Z,98.27
2023-09-18T20:52:03.875Z,98.43
2023-09-18T20:54:33.066Z,98.42
2023-09-18T20:57:01.085Z,98.14
2023-09-18T20:59:29.122Z,97.44
2023-09-18T21:01:57.117Z,97.29
2023-09-18T21:04:25.094Z,97.26
2023-09-18T21:06:53.084Z,97.21
2023-09-18T21:09:20.961Z,97.30
2023-09-18T21:11:50.187Z,97.69
2023-09-18T21:14:18.144Z,97.63
2023-09-18T21:16:46.242Z,97.11
2023-09-18T21:19:14.897Z,97.46
2023-09-18T21:21:42.680Z,97.35
2023-09-18T21:24:11.035Z,97.12
2023-09-18T21:26:39.916Z,97.45
2023-09-18T21:29:09.218Z,96.91
2023-09-18T21:31:37.055Z,96.40
2023-09-18T21:34:04.922Z,96.42
2023-09-18T21:36:33.978Z,96.30
2023-09-18T21:39:02.003Z,96.65
2023-09-18T21:41:29.908Z,96.25
2023-09-18T21:43:58.126Z,96.71
2023-09-18T21:46:27.396Z,96.72
2023-09-18T21:48:55.315Z,97.16
2023-09-18T21:51:23.290Z,96.72
2023-09-18T21:53:51.109Z,96.35
2023-09-18T21:56:19.294Z,96.52
2023-09-18T21:58:47.172Z,95.90
2023-09-18T22:01:15.256Z,96.13
2023-09-18T22:03:45.327Z,96.16
2023-09-18T22:06:13.685Z,96.50
2023-09-18T22:08:41.768Z,95.88
2023-09-18T22:11:09.884Z,95.42
2023-09-18T22:13:38.590Z,95.35
2023-09-18T22:16:07.002Z,94.90
2023-09-18T22:18:35.096Z,94.67
2023-09-18T22:21:04.913Z,94.74
2023-09-18T22:23:32.932Z,94.56
2023-09-18T22:26:03.112Z,94.84
2023-09-18T22:28:32.055Z,94.87
2023-09-18T22:31:00.017Z,94.68
2023-09-18T22:33:28.461Z,95.08
2023-09-18T22:35:56.676Z,94.79
2023-09-18T22:38:36.006Z,95.46
2023-09-18T22:41:04.912Z,94.94
2023-09-18T22:44:10.074Z,94.98
2023-09-18T22:47:16.100Z,95.04
2023-09-18T22:50:22.082Z,94.83
2023-09-18T22:52:49.593Z,93.94
2023-09-18T22:55:21.158Z,94.86
2023-09-18T22:57:52.981Z,95.11
2023-09-18T23:00:23.901Z,95.56
2023-09-18T23:02:52.762Z,96.38
2023-09-18T23:05:25.152Z,96.83
2023-09-18T23:07:56.906Z,97.29
2023-09-18T23:10:26.306Z,96.89
2023-09-18T23:12:54.814Z,96.38
2023-09-18T23:15:22.675Z,95.64
2023-09-18T23:17:56.231Z,95.33
2023-09-18T23:20:26.032Z,95.17
2023-09-18T23:22:56.391Z,94.46
2023-09-18T23:25:26.676Z,94.50
2023-09-18T23:27:56.138Z,94.41
2023-09-18T23:30:28.727Z,94.49
2023-09-18T23:32:57.356Z,94.07
2023-09-18T23:35:27.450Z,94.04
2023-09-18T23:37:59.891Z,94.36
2023-09-18T23:40:32.624Z,93.82
2023-09-18T23:43:04.603Z,94.21
2023-09-18T23:45:38.900Z,94.42
2023-09-18T23:48:10.765Z,94.77
2023-09-18T23:50:41.124Z,94.96
2023-09-18T23:53:10.310Z,94.91
2023-09-18T23:55:42.149Z,95.28
2023-09-18T23:58:12.533Z,95.34
